Time;durP1;ratioP1;P1;durP2;ratioP2;P2;SDS_P1;SDS_P2;PMS_P1;PMS_P2;Temp;Humidity;BMP_temperature;BMP_pressure;BME280_temperature;BME280_humidity;BME280_pressure;Samples;Min_cycle;Max_cycle;Signal;HPM_P1;HPM_P2
2021/08/13 00:01:03;;;;;;;16.17;11.18;;;18.60;99.90;;;;;;5106869;28;20054;-77
2021/08/13 00:03:29;;;;;;;14.48;11.40;;;18.60;99.90;;;;;;5106911;28;20399;-77
2021/08/13 00:05:55;;;;;;;12.48;10.73;;;18.60;99.90;;;;;;5106982;28;20098;-77
2021/08/13 00:08:20;;;;;;;14.55;10.85;;;18.60;99.90;;;;;;5106698;28;20037;-78
2021/08/13 00:10:46;;;;;;;15.13;10.38;;;18.60;99.90;;;;;;5106360;28;20043;-78
2021/08/13 00:13:11;;;;;;;14.27;10.70;;;18.60;99.90;;;;;;5085192;28;20508;-78
2021/08/13 00:15:37;;;;;;;15.90;10.75;;;18.60;99.90;;;;;;5086378;28;20077;-78
2021/08/13 00:18:03;;;;;;;16.25;11.38;;;18.70;99.90;;;;;;5085682;28;20032;-77
2021/08/13 00:20:28;;;;;;;14.75;11.20;;;18.60;99.90;;;;;;5086580;28;20028;-78
2021/08/13 00:22:54;;;;;;;14.23;10.73;;;18.70;99.90;;;;;;5085600;28;20035;-77
2021/08/13 00:25:21;;;;;;;14.07;10.20;;;18.70;99.90;;;;;;5084604;28;20127;-77
2021/08/13 00:27:46;;;;;;;14.07;9.80;;;18.70;99.90;;;;;;5085580;28;20387;-77
2021/08/13 00:30:12;;;;;;;21.80;10.60;;;18.70;99.90;;;;;;5086179;28;20030;-77
2021/08/13 00:32:38;;;;;;;12.38;9.85;;;18.70;99.90;;;;;;5086274;28;20115;-77
2021/08/13 00:35:04;;;;;;;14.95;10.65;;;18.70;99.90;;;;;;5086211;28;20028;-77
2021/08/13 00:37:31;;;;;;;12.80;9.85;;;18.70;99.90;;;;;;5085771;28;20035;-77
2021/08/13 00:39:57;;;;;;;13.40;10.73;;;18.70;99.90;;;;;;5086196;28;20029;-77
2021/08/13 00:42:22;;;;;;;12.35;10.25;;;18.60;99.90;;;;;;5085953;28;20024;-77
2021/08/13 00:44:48;;;;;;;14.75;9.77;;;18.70;99.90;;;;;;5085739;28;20038;-77
2021/08/13 00:47:13;;;;;;;12.85;10.18;;;18.60;99.90;;;;;;5085648;28;20099;-78
2021/08/13 00:49:39;;;;;;;14.38;10.07;;;18.60;99.90;;;;;;5084766;28;20847;-78
2021/08/13 00:52:05;;;;;;;17.63;9.85;;;18.60;99.90;;;;;;5085742;28;20346;-78
2021/08/13 00:54:31;;;;;;;13.13;9.98;;;18.60;99.90;;;;;;5086180;28;20419;-78
2021/08/13 00:56:56;;;;;;;12.82;9.70;;;18.60;99.90;;;;;;5085672;28;20112;-77
2021/08/13 00:59:23;;;;;;;14.50;10.15;;;18.60;99.90;;;;;;5085386;28;20119;-77
2021/08/13 01:01:48;;;;;;;14.60;11.27;;;18.50;99.90;;;;;;5085797;28;20077;-78
2021/08/13 01:04:14;;;;;;;11.63;9.90;;;18.60;99.90;;;;;;5088917;28;20027;-77
2021/08/13 01:06:39;;;;;;;15.68;10.35;;;18.60;99.90;;;;;;5090237;28;20036;-77
2021/08/13 01:09:06;;;;;;;14.57;10.55;;;18.70;99.90;;;;;;5089612;28;20031;-78
2021/08/13 01:11:44;;;;;;;11.40;9.27;;;18.70;99.90;;;;;;5087962;28;20145;-77
2021/08/13 01:14:19;;;;;;;14.30;10.45;;;18.70;99.90;;;;;;5097615;28;20058;-77
2021/08/13 01:16:49;;;;;;;13.10;10.43;;;18.70;99.90;;;;;;5110277;28;20137;-77
2021/08/13 01:19:24;;;;;;;16.10;10.40;;;18.70;99.90;;;;;;5109557;28;20584;-78
2021/08/13 01:21:56;;;;;;;13.70;10.80;;;18.60;99.90;;;;;;5109750;28;20035;-77
2021/08/13 01:24:26;;;;;;;12.70;10.02;;;18.60;99.90;;;;;;5109779;28;20019;-78
2021/08/13 01:27:02;;;;;;;12.88;10.38;;;18.50;99.90;;;;;;5109699;28;20099;-77
2021/08/13 01:29:46;;;;;;;17.02;9.85;;;18.50;99.90;;;;;;5090687;28;20069;-77
2021/08/13 01:32:12;;;;;;;10.90;9.65;;;18.40;99.90;;;;;;5109761;28;20537;-77
2021/08/13 01:34:45;;;;;;;14.63;10.00;;;18.40;99.90;;;;;;5109825;28;20112;-77
2021/08/13 01:37:15;;;;;;;14.02;10.10;;;18.40;99.90;;;;;;5111233;28;20032;-78
2021/08/13 01:39:43;;;;;;;13.50;10.50;;;18.30;99.90;;;;;;5109736;28;20027;-78
2021/08/13 01:42:09;;;;;;;11.50;10.05;;;18.30;99.90;;;;;;5109377;28;20024;-78
2021/08/13 01:44:36;;;;;;;16.15;10.75;;;18.30;99.90;;;;;;5109665;28;20073;-78
2021/08/13 01:47:02;;;;;;;15.05;10.02;;;18.20;99.90;;;;;;5109025;28;20099;-79
2021/08/13 01:49:31;;;;;;;14.40;10.13;;;18.20;99.90;;;;;;5109153;28;20106;-78
2021/08/13 01:51:58;;;;;;;12.55;10.50;;;18.30;99.90;;;;;;5109489;28;20023;-78
2021/08/13 01:54:25;;;;;;;15.98;11.00;;;18.20;99.90;;;;;;5109506;28;20023;-78
2021/08/13 01:56:51;;;;;;;16.63;10.27;;;18.20;99.90;;;;;;5108919;28;20032;-78
2021/08/13 01:59:17;;;;;;;13.43;10.18;;;18.20;99.90;;;;;;5109212;28;20020;-78
2021/08/13 02:01:43;;;;;;;13.38;10.73;;;18.20;99.90;;;;;;5108865;28;20065;-78
2021/08/13 02:04:10;;;;;;;15.20;10.82;;;18.20;99.90;;;;;;5108897;28;20038;-78
2021/08/13 02:06:36;;;;;;;15.73;10.88;;;18.20;99.90;;;;;;5109278;28;20032;-78
2021/08/13 02:09:03;;;;;;;12.80;9.90;;;18.20;99.90;;;;;;5108379;28;20050;-78
2021/08/13 02:11:29;;;;;;;13.15;9.85;;;18.20;99.90;;;;;;5108826;28;20862;-78
2021/08/13 02:13:55;;;;;;;17.48;10.95;;;18.20;99.90;;;;;;5108109;28;20051;-78
2021/08/13 02:16:27;;;;;;;13.90;10.15;;;18.10;99.90;;;;;;5108324;28;20484;-78
2021/08/13 02:19:13;;;;;;;13.52;10.10;;;18.10;99.90;;;;;;5108578;28;20035;-78
2021/08/13 02:21:41;;;;;;;13.38;10.02;;;18.10;99.90;;;;;;5098052;28;20079;-78
2021/08/13 02:24:06;;;;;;;14.63;10.23;;;18.10;99.90;;;;;;5089846;28;20032;-78
2021/08/13 02:26:32;;;;;;;15.77;10.25;;;18.10;99.90;;;;;;5108624;28;20023;-78
2021/08/13 02:28:59;;;;;;;12.50;10.57;;;18.10;99.90;;;;;;5109054;28;20024;-78
2021/08/13 02:31:25;;;;;;;13.73;9.98;;;18.00;99.90;;;;;;5108027;28;20782;-78
2021/08/13 02:33:51;;;;;;;15.60;10.80;;;18.00;99.90;;;;;;5108638;28;20103;-78
2021/08/13 02:36:24;;;;;;;15.43;10.35;;;18.00;99.90;;;;;;5108566;28;20400;-78
2021/08/13 02:39:03;;;;;;;13.98;10.75;;;18.00;99.90;;;;;;5108633;28;20517;-78
2021/08/13 02:41:33;;;;;;;12.48;9.95;;;18.00;99.90;;;;;;5108535;28;20430;-78
2021/08/13 02:44:02;;;;;;;16.77;11.05;;;17.90;99.90;;;;;;5108332;28;20035;-78
2021/08/13 02:46:33;;;;;;;12.43;10.00;;;18.00;99.90;;;;;;5108118;28;20049;-78
2021/08/13 02:49:00;;;;;;;12.48;10.23;;;17.90;99.90;;;;;;5108558;28;20047;-78
2021/08/13 02:51:29;;;;;;;15.52;10.50;;;17.90;99.90;;;;;;5107706;28;20042;-78
2021/08/13 02:53:56;;;;;;;14.15;9.93;;;17.80;99.90;;;;;;5108462;28;20035;-78
2021/08/13 02:56:26;;;;;;;15.80;10.38;;;17.80;99.90;;;;;;5108527;28;20135;-78
2021/08/13 02:58:55;;;;;;;13.57;10.48;;;17.80;99.90;;;;;;5107561;28;20046;-78
2021/08/13 03:01:25;;;;;;;12.48;10.50;;;17.80;99.90;;;;;;5089504;28;20034;-78
2021/08/13 03:03:52;;;;;;;12.02;10.40;;;17.80;99.90;;;;;;5108020;28;20024;-78
2021/08/13 03:06:20;;;;;;;11.77;10.48;;;17.80;99.90;;;;;;5107809;28;20020;-78
2021/08/13 03:08:49;;;;;;;12.57;10.63;;;17.80;99.90;;;;;;5107768;28;20020;-78
2021/08/13 03:11:17;;;;;;;15.32;10.93;;;17.70;99.90;;;;;;5099641;28;20023;-78
2021/08/13 03:13:44;;;;;;;14.63;11.05;;;17.70;99.90;;;;;;5107556;28;20048;-78
2021/08/13 03:16:11;;;;;;;15.40;11.00;;;17.70;99.90;;;;;;5107587;28;20020;-78
2021/08/13 03:18:39;;;;;;;17.02;11.43;;;17.70;99.90;;;;;;5108272;28;20106;-78
2021/08/13 03:21:05;;;;;;;13.27;10.18;;;17.70;99.90;;;;;;5107204;28;20106;-78
2021/08/13 03:23:31;;;;;;;16.42;10.93;;;17.70;99.90;;;;;;5107545;28;20096;-78
2021/08/13 03:25:57;;;;;;;18.40;9.98;;;17.60;99.90;;;;;;5107428;28;20589;-78
2021/08/13 03:28:23;;;;;;;12.38;11.07;;;17.60;99.90;;;;;;5107912;28;20020;-78
2021/08/13 03:30:48;;;;;;;17.58;11.50;;;17.60;99.90;;;;;;5107896;28;20106;-78
2021/08/13 03:33:16;;;;;;;18.25;12.60;;;17.50;99.90;;;;;;5107323;28;20510;-78
2021/08/13 03:35:43;;;;;;;21.85;12.15;;;17.50;99.90;;;;;;5107625;28;20427;-78
2021/08/13 03:38:09;;;;;;;15.85;11.90;;;17.50;99.90;;;;;;5107780;28;20064;-78
2021/08/13 03:40:36;;;;;;;22.70;12.02;;;17.50;99.90;;;;;;5107093;28;20024;-78
2021/08/13 03:43:02;;;;;;;17.42;11.38;;;17.40;99.90;;;;;;5107595;28;20102;-78
2021/08/13 03:45:28;;;;;;;17.50;11.45;;;17.40;99.90;;;;;;5107053;28;20391;-78
2021/08/13 03:47:54;;;;;;;15.18;11.43;;;17.40;99.90;;;;;;5107284;28;20018;-78
2021/08/13 03:50:19;;;;;;;17.13;12.32;;;17.40;99.90;;;;;;5088439;28;20570;-78
2021/08/13 03:52:45;;;;;;;17.35;12.65;;;17.30;99.90;;;;;;5106999;28;20184;-78
2021/08/13 03:55:13;;;;;;;14.10;10.98;;;17.30;99.90;;;;;;5107639;28;20019;-78
2021/08/13 03:57:42;;;;;;;17.70;11.35;;;17.30;99.90;;;;;;5107759;28;20028;-78
2021/08/13 04:00:09;;;;;;;15.48;11.48;;;17.30;99.90;;;;;;5106908;28;20114;-78
2021/08/13 04:02:35;;;;;;;14.88;11.25;;;17.30;99.90;;;;;;5106954;28;20027;-78
2021/08/13 04:05:01;;;;;;;17.05;10.75;;;17.30;99.90;;;;;;5106546;28;20096;-78
2021/08/13 04:07:26;;;;;;;15.50;11.35;;;17.30;99.90;;;;;;5106503;28;20035;-78
2021/08/13 04:09:52;;;;;;;18.48;11.63;;;17.30;99.90;;;;;;5102161;28;20020;-78
2021/08/13 04:12:18;;;;;;;18.23;10.88;;;17.30;99.90;;;;;;5084366;28;20702;-78
2021/08/13 04:14:44;;;;;;;15.68;10.40;;;17.30;99.90;;;;;;5111354;28;20123;-75
2021/08/13 04:17:10;;;;;;;13.75;10.25;;;17.30;99.90;;;;;;5113091;28;20482;-75
2021/08/13 04:19:35;;;;;;;12.93;9.75;;;17.40;99.90;;;;;;5112232;28;20524;-75
2021/08/13 04:22:02;;;;;;;13.60;10.27;;;17.40;99.90;;;;;;5104323;28;20495;-75
2021/08/13 04:24:27;;;;;;;14.27;10.40;;;17.40;99.90;;;;;;5111567;28;20061;-75
2021/08/13 04:26:53;;;;;;;12.40;10.35;;;17.40;99.90;;;;;;5114379;28;20390;-75
2021/08/13 04:29:19;;;;;;;12.63;9.60;;;17.50;99.90;;;;;;5095531;28;20026;-75
2021/08/13 04:31:45;;;;;;;14.27;9.02;;;17.50;99.90;;;;;;5113591;28;20351;-75
2021/08/13 04:34:10;;;;;;;13.02;9.25;;;17.60;99.90;;;;;;5113855;28;20428;-75
2021/08/13 04:36:36;;;;;;;12.73;9.52;;;17.60;99.90;;;;;;5113499;28;20035;-75
2021/08/13 04:39:02;;;;;;;13.25;9.10;;;17.70;99.90;;;;;;5112816;28;20164;-76
2021/08/13 04:41:27;;;;;;;13.65;9.35;;;17.70;99.90;;;;;;5113371;28;20055;-75
2021/08/13 04:43:53;;;;;;;11.32;9.35;;;17.80;99.90;;;;;;5113568;28;20028;-75
2021/08/13 04:46:18;;;;;;;9.93;8.18;;;17.80;99.90;;;;;;5113077;28;20028;-75
2021/08/13 04:48:44;;;;;;;13.75;8.40;;;18.00;99.90;;;;;;5113517;28;20062;-75
2021/08/13 04:51:09;;;;;;;12.02;8.30;;;18.10;99.90;;;;;;5113089;28;20620;-75
2021/08/13 04:53:35;;;;;;;16.90;9.43;;;18.10;99.90;;;;;;5107340;28;20069;-75
2021/08/13 04:56:01;;;;;;;12.55;8.88;;;18.20;99.90;;;;;;5104489;28;20210;-75
2021/08/13 04:58:26;;;;;;;15.93;8.70;;;18.30;99.90;;;;;;5112996;28;20034;-75
2021/08/13 05:00:52;;;;;;;10.77;8.38;;;18.40;99.90;;;;;;5102201;28;20024;-75
2021/08/13 05:03:17;;;;;;;10.95;8.35;;;18.50;99.90;;;;;;5104721;28;20030;-75
2021/08/13 05:05:43;;;;;;;12.65;8.18;;;18.50;99.90;;;;;;5112387;28;20027;-75
2021/08/13 05:08:09;;;;;;;12.98;8.48;;;18.60;99.90;;;;;;5112485;28;20031;-75
2021/08/13 05:10:34;;;;;;;12.45;9.05;;;18.70;99.90;;;;;;5094044;28;20379;-75
2021/08/13 05:13:00;;;;;;;12.10;8.25;;;18.90;99.90;;;;;;5112394;28;20559;-75
2021/08/13 05:15:26;;;;;;;15.25;9.27;;;18.90;99.90;;;;;;5112386;28;20039;-74
2021/08/13 05:17:51;;;;;;;12.80;8.73;;;19.00;99.90;;;;;;5109240;28;20036;-73
2021/08/13 05:20:17;;;;;;;10.77;8.25;;;19.00;99.90;;;;;;5104411;28;20077;-73
2021/08/13 05:22:43;;;;;;;17.27;8.90;;;19.10;99.90;;;;;;5126779;28;20039;-73
2021/08/13 05:25:11;;;;;;;12.40;8.35;;;19.10;99.90;;;;;;5112530;28;20081;-74
2021/08/13 05:27:37;;;;;;;13.57;8.73;;;19.10;99.90;;;;;;5108320;28;20081;-75
2021/08/13 05:30:04;;;;;;;10.52;8.20;;;19.20;99.90;;;;;;5098807;28;20032;-76
2021/08/13 05:32:29;;;;;;;13.88;9.05;;;19.20;99.90;;;;;;5100894;28;20129;-75
2021/08/13 05:34:55;;;;;;;11.82;8.80;;;19.20;99.90;;;;;;5104516;28;20055;-75
2021/08/13 05:37:21;;;;;;;15.23;8.32;;;19.20;99.90;;;;;;5106079;28;20024;-75
2021/08/13 05:39:47;;;;;;;10.75;8.52;;;19.20;99.90;;;;;;5104306;28;20446;-75
2021/08/13 05:42:12;;;;;;;12.80;8.50;;;19.30;99.90;;;;;;5104548;28;20028;-75
2021/08/13 05:44:39;;;;;;;19.67;10.80;;;19.40;99.90;;;;;;5104934;28;20077;-75
2021/08/13 05:47:05;;;;;;;14.32;8.40;;;19.50;99.90;;;;;;5104789;28;20016;-75
2021/08/13 05:49:30;;;;;;;12.10;7.85;;;19.60;99.90;;;;;;5112500;28;20016;-75
2021/08/13 05:51:57;;;;;;;12.57;8.05;;;19.70;99.90;;;;;;5116183;28;20384;-74
2021/08/13 05:54:23;;;;;;;12.80;8.43;;;19.90;99.90;;;;;;5111187;28;20129;-74
2021/08/13 05:56:49;;;;;;;14.70;8.10;;;19.90;99.90;;;;;;5108512;28;20098;-74
2021/08/13 05:59:15;;;;;;;12.50;8.68;;;20.00;99.90;;;;;;5109041;28;20057;-74
2021/08/13 06:01:40;;;;;;;12.93;7.80;;;20.10;99.90;;;;;;5091639;28;20472;-74
2021/08/13 06:04:06;;;;;;;12.98;8.23;;;20.10;99.90;;;;;;5091367;28;20031;-74
2021/08/13 06:06:31;;;;;;;15.50;7.95;;;20.20;99.90;;;;;;5110168;28;20065;-74
2021/08/13 06:08:57;;;;;;;10.23;7.72;;;20.20;99.90;;;;;;5110501;28;20023;-74
2021/08/13 06:11:23;;;;;;;15.30;7.30;;;20.30;99.90;;;;;;5110902;28;20027;-74
2021/08/13 06:13:48;;;;;;;13.75;8.05;;;20.30;99.90;;;;;;5109787;28;20055;-74
2021/08/13 06:16:18;;;;;;;15.38;8.15;;;20.40;99.90;;;;;;5109129;28;20024;-74
2021/08/13 06:18:44;;;;;;;12.85;7.97;;;20.40;99.90;;;;;;5109728;28;20028;-74
2021/08/13 06:21:10;;;;;;;15.02;7.72;;;20.40;99.90;;;;;;5100173;28;20036;-74
2021/08/13 06:23:35;;;;;;;15.25;7.63;;;20.50;99.90;;;;;;5091617;28;20107;-74
2021/08/13 06:26:01;;;;;;;11.45;6.63;;;20.50;99.90;;;;;;5109516;28;20034;-74
2021/08/13 06:28:26;;;;;;;12.75;7.05;;;20.50;99.90;;;;;;5091569;28;20035;-74
2021/08/13 06:30:52;;;;;;;13.32;7.43;;;20.50;99.90;;;;;;5106727;28;20042;-74
2021/08/13 06:33:17;;;;;;;13.32;7.45;;;20.60;99.90;;;;;;5109375;28;20039;-74
2021/08/13 06:35:43;;;;;;;14.93;6.25;;;20.80;99.90;;;;;;5107191;28;20080;-74
2021/08/13 06:38:09;;;;;;;10.95;6.72;;;21.00;99.90;;;;;;5108756;28;20110;-74
2021/08/13 06:40:35;;;;;;;8.40;5.82;;;21.20;99.90;;;;;;5109349;28;20053;-74
2021/08/13 06:43:00;;;;;;;12.23;7.00;;;21.30;99.90;;;;;;5109318;28;20031;-74
2021/08/13 06:45:27;;;;;;;8.63;6.15;;;21.50;99.90;;;;;;5104872;28;20035;-74
2021/08/13 06:47:53;;;;;;;13.38;6.00;;;21.70;99.90;;;;;;5094695;28;20103;-74
2021/08/13 06:50:20;;;;;;;18.55;7.25;;;21.80;99.90;;;;;;5093550;28;20087;-75
2021/08/13 06:52:45;;;;;;;13.60;6.35;;;22.00;99.90;;;;;;5120079;27;20019;-75
2021/08/13 06:55:11;;;;;;;10.80;5.85;;;22.10;99.90;;;;;;5100498;28;20072;-75
2021/08/13 06:57:38;;;;;;;15.32;6.97;;;22.20;99.90;;;;;;5114758;28;20236;-75
2021/08/13 07:00:06;;;;;;;10.93;6.15;;;22.30;99.90;;;;;;5114296;28;20061;-75
2021/08/13 07:02:32;;;;;;;9.60;5.85;;;22.40;99.90;;;;;;5093898;28;20442;-75
2021/08/13 07:04:58;;;;;;;12.93;5.90;;;22.60;99.90;;;;;;5110224;28;20027;-75
2021/08/13 07:07:23;;;;;;;8.52;6.30;;;22.70;99.90;;;;;;5114525;28;20376;-75
2021/08/13 07:09:49;;;;;;;11.07;6.25;;;22.80;99.90;;;;;;5114254;28;20066;-75
2021/08/13 07:12:15;;;;;;;10.88;6.45;;;22.80;99.90;;;;;;5112151;28;20031;-75
2021/08/13 07:14:42;;;;;;;13.65;6.57;;;22.90;99.90;;;;;;5102398;28;20070;-75
2021/08/13 07:17:08;;;;;;;10.60;5.93;;;23.10;99.90;;;;;;5110792;28;20019;-75
2021/08/13 07:19:34;;;;;;;10.65;6.25;;;23.20;99.90;;;;;;5114352;28;20051;-75
2021/08/13 07:21:59;;;;;;;12.00;5.35;;;23.40;99.90;;;;;;5095810;28;20039;-75
2021/08/13 07:24:25;;;;;;;8.52;5.70;;;23.40;99.90;;;;;;5114039;28;20031;-75
2021/08/13 07:26:51;;;;;;;12.52;5.68;;;23.40;99.90;;;;;;5124796;27;20487;-75
2021/08/13 07:29:16;;;;;;;12.93;5.53;;;23.50;99.90;;;;;;5134852;27;20069;-75
2021/08/13 07:31:42;;;;;;;8.35;5.60;;;23.60;99.90;;;;;;5134807;27;20030;-75
2021/08/13 07:34:08;;;;;;;8.35;5.72;;;23.70;99.90;;;;;;5105389;28;20524;-75
2021/08/13 07:36:34;;;;;;;8.25;5.18;;;23.70;99.90;;;;;;5114074;28;20376;-76
2021/08/13 07:38:59;;;;;;;11.27;5.75;;;23.80;99.90;;;;;;5113619;28;20028;-75
2021/08/13 07:41:25;;;;;;;9.15;5.25;;;23.90;99.90;;;;;;5113794;28;20028;-75
2021/08/13 07:43:51;;;;;;;9.45;5.35;;;23.90;99.90;;;;;;5113599;28;20023;-75
2021/08/13 07:46:16;;;;;;;12.63;5.63;;;24.00;99.90;;;;;;5113817;28;20050;-75
2021/08/13 07:48:42;;;;;;;8.93;5.00;;;24.00;99.90;;;;;;5094941;28;20043;-76
2021/08/13 07:51:08;;;;;;;10.45;5.32;;;24.10;99.90;;;;;;5093414;28;20033;-75
2021/08/13 07:53:34;;;;;;;9.18;4.78;;;24.20;99.90;;;;;;5093376;28;20081;-76
2021/08/13 07:55:59;;;;;;;9.85;4.90;;;24.30;99.90;;;;;;5101529;28;20067;-76
2021/08/13 07:58:25;;;;;;;7.35;5.00;;;24.40;99.90;;;;;;5113210;28;20436;-76
2021/08/13 08:00:52;;;;;;;6.13;4.95;;;24.50;99.90;;;;;;5113178;28;20039;-75
2021/08/13 08:03:18;;;;;;;10.65;5.10;;;24.70;99.90;;;;;;5112745;28;20030;-75
2021/08/13 08:05:44;;;;;;;9.30;4.90;;;24.80;99.90;;;;;;5115910;27;20027;-75
2021/08/13 08:08:09;;;;;;;8.70;5.00;;;24.90;99.90;;;;;;5108896;27;20020;-75
2021/08/13 08:10:35;;;;;;;14.75;5.07;;;25.00;99.90;;;;;;5112500;28;20030;-75
2021/08/13 08:13:00;;;;;;;12.43;4.97;;;25.00;99.90;;;;;;5111974;28;20062;-75
2021/08/13 08:15:26;;;;;;;10.70;4.97;;;25.10;99.90;;;;;;5112370;28;20476;-75
2021/08/13 08:17:51;;;;;;;9.18;4.65;;;25.20;99.90;;;;;;5113204;28;20031;-75
2021/08/13 08:20:17;;;;;;;10.05;4.85;;;25.30;99.90;;;;;;5096202;28;20111;-76
2021/08/13 08:22:43;;;;;;;12.10;4.72;;;25.40;99.90;;;;;;5113590;28;20031;-75
2021/08/13 08:25:09;;;;;;;7.32;4.10;;;25.40;99.90;;;;;;5095218;28;20104;-75
2021/08/13 08:27:35;;;;;;;9.95;4.18;;;25.50;99.90;;;;;;5113421;28;20121;-75
2021/08/13 08:30:02;;;;;;;10.52;4.88;;;25.50;99.90;;;;;;5095161;28;20110;-75
2021/08/13 08:32:27;;;;;;;10.30;4.50;;;25.60;99.90;;;;;;5113807;28;20015;-76
2021/08/13 08:34:53;;;;;;;8.15;4.32;;;25.60;99.90;;;;;;5113665;28;20440;-75
2021/08/13 08:37:19;;;;;;;8.73;4.38;;;25.60;99.90;;;;;;5113564;28;20480;-76
2021/08/13 08:39:45;;;;;;;10.38;5.03;;;25.70;99.90;;;;;;5113550;28;20027;-75
2021/08/13 08:42:19;;;;;;;6.95;4.32;;;25.80;99.90;;;;;;5113803;28;20040;-76
2021/08/13 08:44:45;;;;;;;6.75;4.00;;;25.90;99.90;;;;;;5112611;28;20016;-76
2021/08/13 08:47:12;;;;;;;7.15;3.78;;;25.90;99.90;;;;;;5102032;28;20024;-76
2021/08/13 08:49:39;;;;;;;8.00;4.53;;;25.90;99.90;;;;;;5107883;28;20103;-75
2021/08/13 08:52:07;;;;;;;7.68;4.57;;;26.00;99.90;;;;;;5092000;28;20527;-76
2021/08/13 08:54:38;;;;;;;5.70;4.10;;;26.10;99.90;;;;;;5112264;28;20118;-76
2021/08/13 08:57:06;;;;;;;10.70;4.20;;;26.20;99.90;;;;;;5110549;28;20471;-76
2021/08/13 08:59:32;;;;;;;9.88;4.20;;;26.30;99.90;;;;;;5112346;28;20062;-76
2021/08/13 09:01:59;;;;;;;9.75;4.10;;;26.30;99.90;;;;;;5102969;28;20028;-74
2021/08/13 09:04:25;;;;;;;8.32;4.43;;;26.40;99.90;;;;;;5101667;28;20035;-74
2021/08/13 09:06:50;;;;;;;8.40;3.90;;;26.50;99.90;;;;;;5096939;28;20032;-75
2021/08/13 09:09:16;;;;;;;9.32;3.78;;;26.50;99.90;;;;;;5099948;28;20039;-75
2021/08/13 09:11:43;;;;;;;6.80;4.07;;;26.60;99.90;;;;;;5102982;28;20644;-75
2021/08/13 09:14:11;;;;;;;8.48;4.10;;;26.70;99.90;;;;;;5104325;28;20499;-74
2021/08/13 09:16:37;;;;;;;9.95;3.97;;;26.80;99.90;;;;;;5105271;28;20020;-74
2021/08/13 09:19:09;;;;;;;9.02;3.65;;;26.80;99.90;;;;;;5103910;28;20030;-74
2021/08/13 09:21:36;;;;;;;7.10;3.70;;;26.90;99.90;;;;;;5107729;28;20020;-74
2021/08/13 09:24:12;;;;;;;7.80;3.85;;;27.10;99.90;;;;;;5107664;28;20069;-74
2021/08/13 09:26:43;;;;;;;9.05;3.70;;;27.20;99.90;;;;;;5110609;28;20055;-74
2021/08/13 09:29:19;;;;;;;8.45;3.30;;;27.30;99.90;;;;;;5102521;28;20025;-74
2021/08/13 09:31:50;;;;;;;9.70;3.50;;;27.40;99.90;;;;;;5105201;28;20015;-74
2021/08/13 09:34:17;;;;;;;8.55;3.22;;;27.50;99.90;;;;;;5090426;28;20020;-76
2021/08/13 09:36:51;;;;;;;5.65;3.60;;;27.60;99.90;;;;;;5099115;28;20019;-76
2021/08/13 09:39:24;;;;;;;10.65;3.80;;;27.70;99.90;;;;;;5095391;28;20020;-77
2021/08/13 09:41:52;;;;;;;8.60;3.95;;;27.80;99.90;;;;;;5089946;28;20027;-77
2021/08/13 09:44:30;;;;;;;7.13;3.55;;;28.00;99.90;;;;;;5103580;28;20484;-77
2021/08/13 09:47:04;;;;;;;9.63;3.22;;;28.20;99.90;;;;;;5100917;28;20031;-77
2021/08/13 09:49:39;;;;;;;7.45;3.40;;;28.40;99.90;;;;;;5102398;28;20072;-77
2021/08/13 09:52:20;;;;;;;7.47;3.17;;;28.70;99.90;;;;;;5100683;28;20042;-78
2021/08/13 09:54:48;;;;;;;5.00;2.75;;;28.80;99.90;;;;;;5084689;28;20458;-78
2021/08/13 09:57:17;;;;;;;6.35;3.20;;;29.00;99.90;;;;;;5100377;28;20063;-78
2021/08/13 10:00:06;;;;;;;9.63;2.95;;;29.20;99.90;;;;;;5104427;28;20140;-78
2021/08/13 10:02:35;;;;;;;7.25;2.80;;;29.40;99.90;;;;;;5100512;28;20058;-78
2021/08/13 10:05:17;;;;;;;6.85;2.80;;;29.50;99.90;;;;;;5102170;28;20089;-78
2021/08/13 10:07:48;;;;;;;6.93;2.97;;;29.70;99.90;;;;;;5104759;28;20020;-78
2021/08/13 10:10:14;;;;;;;7.00;3.10;;;29.60;99.90;;;;;;5098598;28;20015;-78
2021/08/13 10:12:43;;;;;;;7.57;3.38;;;29.60;99.90;;;;;;5101343;28;20024;-78
2021/08/13 10:15:09;;;;;;;7.35;3.20;;;29.70;99.90;;;;;;5107451;28;20375;-78
2021/08/13 10:17:34;;;;;;;8.98;2.95;;;29.90;99.90;;;;;;5107254;28;20027;-78
2021/08/13 10:20:00;;;;;;;8.45;3.20;;;30.00;99.90;;;;;;5107551;28;20039;-78
2021/08/13 10:22:26;;;;;;;5.90;3.13;;;30.10;99.90;;;;;;5109866;28;20027;-77
2021/08/13 10:24:55;;;;;;;5.75;3.10;;;30.40;99.90;;;;;;5115470;28;20036;-76
2021/08/13 10:27:21;;;;;;;5.97;2.95;;;30.40;99.90;;;;;;5091938;28;20019;-76
2021/08/13 10:29:47;;;;;;;6.15;2.88;;;30.40;99.90;;;;;;5111641;28;20471;-76
2021/08/13 10:32:20;;;;;;;6.10;3.15;;;30.50;99.90;;;;;;5115388;28;20020;-76
2021/08/13 10:34:46;;;;;;;7.78;3.17;;;30.70;99.90;;;;;;5115019;28;20028;-76
2021/08/13 10:37:14;;;;;;;4.68;3.08;;;30.70;99.90;;;;;;5114299;28;20019;-76
2021/08/13 10:39:44;;;;;;;8.57;3.30;;;30.70;99.90;;;;;;5114961;28;20027;-76
2021/08/13 10:42:17;;;;;;;7.20;3.00;;;30.80;99.90;;;;;;5111538;28;20038;-76
2021/08/13 10:44:48;;;;;;;8.45;3.58;;;30.70;99.90;;;;;;5107751;28;20078;-76
2021/08/13 10:47:16;;;;;;;6.90;2.95;;;30.90;99.90;;;;;;5109920;28;20036;-77
2021/08/13 10:49:46;;;;;;;5.63;2.92;;;30.90;99.90;;;;;;5106504;28;20119;-77
2021/08/13 10:52:12;;;;;;;7.00;3.17;;;31.00;99.90;;;;;;5107195;28;20016;-78
2021/08/13 10:54:40;;;;;;;5.63;2.65;;;30.90;99.90;;;;;;5089021;28;20085;-78
2021/08/13 10:57:08;;;;;;;5.90;2.55;;;30.90;99.90;;;;;;5106722;28;20055;-77
2021/08/13 10:59:40;;;;;;;7.85;3.22;;;30.90;99.90;;;;;;5105783;28;20023;-77
2021/08/13 11:02:15;;;;;;;7.80;2.80;;;30.90;99.90;;;;;;5093278;28;20020;-75
2021/08/13 11:04:43;;;;;;;7.65;2.88;;;30.80;99.90;;;;;;5098070;28;20024;-77
2021/08/13 11:07:10;;;;;;;6.57;2.78;;;31.00;99.90;;;;;;5108260;28;20036;-78
2021/08/13 11:09:36;;;;;;;7.68;2.88;;;31.10;99.90;;;;;;5106423;28;20358;-78
2021/08/13 11:12:02;;;;;;;4.80;2.70;;;31.40;99.90;;;;;;5109689;28;20020;-83
2021/08/13 11:14:32;;;;;;;4.85;2.60;;;31.50;99.90;;;;;;5106408;28;20069;-75
2021/08/13 11:17:00;;;;;;;6.05;2.47;;;31.50;99.90;;;;;;5105563;28;20028;-74
2021/08/13 11:19:26;;;;;;;7.55;3.13;;;31.70;99.90;;;;;;5113691;28;20524;-75
2021/08/13 11:21:58;;;;;;;12.15;2.97;;;31.70;98.80;;;;;;5114541;28;20042;-75
2021/08/13 11:24:51;;;;;;;7.55;2.35;;;31.70;97.30;;;;;;5107660;28;20031;-74
2021/08/13 11:27:17;;;;;;;6.38;2.58;;;31.70;97.30;;;;;;5094207;28;20020;-74
2021/08/13 11:29:43;;;;;;;6.50;2.85;;;31.70;96.50;;;;;;5112756;28;20418;-75
2021/08/13 11:32:17;;;;;;;5.40;2.50;;;31.80;96.80;;;;;;5105906;28;20016;-74
2021/08/13 11:34:43;;;;;;;6.38;2.33;;;31.90;95.40;;;;;;5104189;28;20402;-75
2021/08/13 11:37:10;;;;;;;9.70;2.80;;;32.00;95.90;;;;;;5097950;28;20040;-73
2021/08/13 11:39:39;;;;;;;7.82;2.83;;;32.10;95.10;;;;;;5094167;28;20460;-73
2021/08/13 11:42:10;;;;;;;7.53;2.67;;;32.10;94.50;;;;;;5094201;28;20051;-73
2021/08/13 11:44:36;;;;;;;6.70;3.10;;;32.10;94.50;;;;;;5094177;28;20103;-73
2021/08/13 11:47:20;;;;;;;6.13;2.78;;;32.10;94.10;;;;;;5093185;28;20101;-73
2021/08/13 11:49:46;;;;;;;6.57;2.65;;;32.20;95.00;;;;;;5094079;28;20036;-72
2021/08/13 11:52:16;;;;;;;8.65;2.97;;;32.30;94.40;;;;;;5075679;28;20115;-73
2021/08/13 11:54:42;;;;;;;8.52;3.08;;;32.30;95.70;;;;;;5093986;28;20448;-73
2021/08/13 11:57:12;;;;;;;9.20;3.15;;;32.60;96.70;;;;;;5093893;28;20038;-73
2021/08/13 11:59:38;;;;;;;6.90;3.00;;;32.80;97.10;;;;;;5093841;28;20028;-73
2021/08/13 12:02:04;;;;;;;5.70;2.80;;;32.80;95.70;;;;;;5093768;28;20032;-78
2021/08/13 12:04:30;;;;;;;7.68;3.28;;;32.80;96.20;;;;;;5092494;28;20142;-78
2021/08/13 12:07:10;;;;;;;8.60;2.80;;;32.90;95.00;;;;;;5093319;28;20039;-78
2021/08/13 12:09:38;;;;;;;5.10;2.40;;;32.80;92.20;;;;;;5097654;28;20080;-78
2021/08/13 12:12:06;;;;;;;5.22;2.75;;;32.60;94.10;;;;;;5099364;28;20513;-78
2021/08/13 12:14:32;;;;;;;8.15;2.72;;;32.50;90.80;;;;;;5097030;28;20048;-78
2021/08/13 12:16:58;;;;;;;8.07;3.05;;;32.30;92.60;;;;;;5091832;28;20087;-78
2021/08/13 12:19:24;;;;;;;7.60;2.50;;;32.10;92.00;;;;;;5091601;28;20063;-78
2021/08/13 12:22:04;;;;;;;8.70;2.75;;;32.10;91.20;;;;;;5101188;28;20039;-78
2021/08/13 12:24:37;;;;;;;8.32;2.58;;;32.10;91.70;;;;;;5093586;28;20054;-78
2021/08/13 12:27:09;;;;;;;10.82;2.92;;;32.00;93.30;;;;;;5097310;28;20029;-78
2021/08/13 12:29:38;;;;;;;9.73;2.70;;;32.00;92.40;;;;;;5093619;28;20035;-78
2021/08/13 12:32:06;;;;;;;6.30;2.30;;;31.90;92.30;;;;;;5098778;28;20036;-78
2021/08/13 12:34:33;;;;;;;11.43;2.70;;;31.80;91.20;;;;;;5112002;28;20168;-73
2021/08/13 12:37:08;;;;;;;7.80;2.67;;;31.70;91.40;;;;;;5113916;28;20111;-73
2021/08/13 12:39:39;;;;;;;12.02;3.17;;;31.50;90.40;;;;;;5113546;28;20034;-73